Terminal Aerodrome Forecast
Issued by NWS Charleston, SC

Home | Current Version | Previous Version | Text Only | Print | Product List | Glossary On
Versions: 1 2 3 4 5 6 7 8 9 10 11 12
000
FTUS42 KCHS 241732
TAFCHS
TAF
KCHS 241732Z 2418/2518 12012G17KT P6SM SCT050
     FM250000 09005KT P6SM FEW040
     FM251400 12012KT P6SM SCT030=

USA.gov is the U.S. government's official web portal to all federal, state and local government web resources and services.